Time;durP1;ratioP1;P1;durP2;ratioP2;P2;SDS_P1;SDS_P2;PMS_P1;PMS_P2;Temp;Humidity;BMP_temperature;BMP_pressure;BME280_temperature;BME280_humidity;BME280_pressure;Samples;Min_cycle;Max_cycle;Signal;HPM_P1;HPM_P2
2023/03/21 00:01:44;;;;;;;53.70;28.60;;;;;;;9.08;98.07;100527.45;105345;1266;99277;-79
2023/03/21 00:04:29;;;;;;;50.70;30.70;;;;;;;9.05;98.27;100526.04;105131;1263;97117;-78
2023/03/21 00:07:15;;;;;;;52.60;32.20;;;;;;;9.04;98.41;100524.00;105276;1266;97127;-80
2023/03/21 00:10:01;;;;;;;62.50;34.10;;;;;;;9.01;98.47;100525.23;105147;1268;100036;-77
2023/03/21 00:12:49;;;;;;;51.30;30.10;;;;;;;8.98;98.72;100525.01;105208;1263;99338;-79
2023/03/21 00:15:49;;;;;;;57.80;33.30;;;;;;;8.97;98.82;100522.11;105126;1268;97745;-77
2023/03/21 00:18:35;;;;;;;52.30;29.60;;;;;;;8.98;98.92;100522.23;105059;1266;96708;-78
2023/03/21 00:21:31;;;;;;;48.60;27.80;;;;;;;8.96;98.79;100517.80;105098;1269;98782;-78
2023/03/21 00:24:17;;;;;;;44.00;26.00;;;;;;;8.95;98.73;100517.80;104865;1268;100003;-77
2023/03/21 00:27:03;;;;;;;48.60;27.40;;;;;;;8.94;99.06;100516.27;105173;1267;101469;-76
2023/03/21 00:29:48;;;;;;;46.30;28.60;;;;;;;8.94;99.21;100511.85;105306;1280;97715;-78
2023/03/21 00:32:36;;;;;;;45.60;28.20;;;;;;;8.92;99.09;100512.64;105019;1265;98008;-77
2023/03/21 00:35:21;;;;;;;44.50;26.70;;;;;;;8.91;99.23;100510.81;105060;1264;97043;-77
2023/03/21 00:38:07;;;;;;;42.70;25.20;;;;;;;8.90;99.30;100509.89;105203;1265;101268;-78
2023/03/21 00:40:52;;;;;;;39.70;23.10;;;;;;;8.86;99.44;100509.74;105034;1269;100370;-78
2023/03/21 00:43:39;;;;;;;40.30;24.60;;;;;;;8.86;99.45;100510.16;105149;1268;97737;-77
2023/03/21 00:46:24;;;;;;;36.10;22.20;;;;;;;8.84;99.26;100507.30;105079;1268;96534;-78
2023/03/21 00:49:10;;;;;;;38.10;21.70;;;;;;;8.82;99.17;100509.17;105186;1267;96566;-78
2023/03/21 00:51:55;;;;;;;36.60;22.00;;;;;;;8.80;99.35;100509.71;105204;1264;101290;-77
2023/03/21 00:54:41;;;;;;;36.20;21.60;;;;;;;8.79;99.21;100510.36;105161;1268;99174;-80
2023/03/21 00:57:28;;;;;;;36.20;21.90;;;;;;;8.77;99.26;100507.96;105322;1265;97752;-79
2023/03/21 01:00:16;;;;;;;36.30;22.00;;;;;;;8.76;99.49;100503.23;105086;1264;97247;-79
2023/03/21 01:03:04;;;;;;;33.40;20.90;;;;;;;8.78;99.51;100501.66;105288;1265;97247;-78
2023/03/21 01:06:03;;;;;;;35.90;21.50;;;;;;;8.78;99.37;100498.91;105261;1264;101299;-79
2023/03/21 01:08:49;;;;;;;36.20;21.60;;;;;;;8.79;99.43;100492.77;105189;1268;99191;-79
2023/03/21 01:11:34;;;;;;;42.60;25.80;;;;;;;8.79;99.48;100492.90;105308;1264;98096;-78
2023/03/21 01:14:22;;;;;;;39.60;23.10;;;;;;;8.81;99.30;100491.31;105262;1265;96654;-79
2023/03/21 01:17:07;;;;;;;37.70;23.50;;;;;;;8.84;99.31;100489.89;105312;1267;95903;-78
2023/03/21 01:19:53;;;;;;;46.50;25.90;;;;;;;8.86;99.18;100488.17;105350;1266;109416;-78
2023/03/21 01:22:39;;;;;;;44.10;26.50;;;;;;;8.88;99.38;100487.80;105332;1265;99234;-79
2023/03/21 01:25:24;;;;;;;39.80;26.20;;;;;;;8.88;99.18;100483.32;105163;1278;99583;-79
2023/03/21 01:28:10;;;;;;;40.80;25.70;;;;;;;8.88;99.07;100478.02;105304;1266;96648;-78
2023/03/21 01:30:56;;;;;;;40.40;25.70;;;;;;;8.86;99.31;100473.26;105169;1268;97430;-79
2023/03/21 01:33:42;;;;;;;44.50;28.50;;;;;;;8.85;99.10;100472.53;105154;1269;100005;-79
2023/03/21 01:36:27;;;;;;;43.80;27.60;;;;;;;8.82;98.95;100472.98;105384;1267;100315;-79
2023/03/21 01:39:21;;;;;;;41.90;26.60;;;;;;;8.80;99.08;100473.92;105121;1268;98866;-78
2023/03/21 01:42:12;;;;;;;41.80;26.80;;;;;;;8.79;98.95;100468.61;105228;1268;97320;-78
2023/03/21 01:45:25;;;;;;;35.70;21.60;;;;;;;8.78;98.72;100477.46;105180;1265;97257;-78
2023/03/21 01:48:13;;;;;;;34.00;19.20;;;;;;;8.73;98.68;100485.34;105596;1265;100013;-78
2023/03/21 01:51:05;;;;;;;34.10;19.90;;;;;;;8.68;98.68;100484.06;105371;1268;100374;-77
2023/03/21 01:53:56;;;;;;;32.60;18.70;;;;;;;8.67;98.55;100484.01;105267;1266;98955;-79
2023/03/21 01:56:45;;;;;;;29.60;18.30;;;;;;;8.64;98.69;100481.52;105317;1268;96737;-78
2023/03/21 01:59:39;;;;;;;31.10;17.40;;;;;;;8.65;98.93;100480.17;105078;1266;97516;-79
2023/03/21 02:02:54;;;;;;;30.20;17.70;;;;;;;8.67;98.79;100478.20;105155;1268;100180;-79
2023/03/21 02:06:12;;;;;;;30.30;18.30;;;;;;;8.66;98.94;100476.26;105268;1266;99091;-80
2023/03/21 02:09:07;;;;;;;27.00;16.90;;;;;;;8.68;99.23;100481.22;105323;1267;98478;-79
2023/03/21 02:11:54;;;;;;;29.00;17.40;;;;;;;8.69;99.21;100478.86;105127;1266;96702;-79
2023/03/21 02:14:42;;;;;;;31.50;18.00;;;;;;;8.69;99.17;100481.42;105249;1264;96633;-79
2023/03/21 02:17:53;;;;;;;26.70;16.50;;;;;;;8.67;98.93;100483.14;105177;1269;100002;-80
2023/03/21 02:21:28;;;;;;;29.10;16.50;;;;;;;8.64;98.86;100482.49;105374;1268;99090;-79
2023/03/21 02:24:56;;;;;;;27.90;16.10;;;;;;;8.62;99.08;100483.16;105211;1266;97873;-79
2023/03/21 02:27:51;;;;;;;31.20;16.50;;;;;;;8.63;99.32;100485.10;105286;1265;96682;-78
2023/03/21 02:30:54;;;;;;;30.50;16.30;;;;;;;8.62;99.13;100484.84;105328;1268;96640;-79
2023/03/21 02:33:58;;;;;;;27.60;16.70;;;;;;;8.58;98.95;100487.36;105247;1266;100019;-78
2023/03/21 02:37:03;;;;;;;28.10;17.20;;;;;;;8.54;98.95;100480.52;105142;1267;99153;-80
2023/03/21 02:40:06;;;;;;;24.80;15.20;;;;;;;8.51;98.94;100481.44;105079;1263;97777;-77
2023/03/21 02:43:09;;;;;;;22.10;13.80;;;;;;;8.47;99.12;100482.02;104977;1264;96640;-78
2023/03/21 02:46:07;;;;;;;21.60;14.00;;;;;;;8.44;99.37;100485.95;105209;1277;97088;-78
2023/03/21 02:49:11;;;;;;;25.00;13.70;;;;;;;8.41;99.40;100485.60;105374;1268;100748;-79
2023/03/21 02:52:00;;;;;;;18.90;12.20;;;;;;;8.41;99.40;100488.27;105288;1268;99233;-77
2023/03/21 02:54:48;;;;;;;21.20;13.60;;;;;;;8.41;99.56;100489.54;104824;1266;98851;-78
2023/03/21 02:57:35;;;;;;;21.80;13.70;;;;;;;8.40;99.49;100489.27;105199;1267;96648;-77
2023/03/21 03:00:25;;;;;;;21.20;13.40;;;;;;;8.39;99.61;100490.11;105316;1268;96544;-79
2023/03/21 03:03:11;;;;;;;23.30;14.30;;;;;;;8.40;99.60;100487.66;105160;1271;100819;-78
2023/03/21 03:05:59;;;;;;;24.80;14.60;;;;;;;8.42;99.73;100490.50;105337;1263;100787;-79
2023/03/21 03:09:08;;;;;;;20.40;13.80;;;;;;;8.44;99.74;100492.80;105307;1266;97725;-79
2023/03/21 03:12:05;;;;;;;22.30;14.60;;;;;;;8.43;99.61;100494.33;105071;1265;96728;-78
2023/03/21 03:15:16;;;;;;;22.90;13.30;;;;;;;8.41;99.62;100498.91;105296;1268;96509;-78
2023/03/21 03:18:05;;;;;;;23.10;14.60;;;;;;;8.40;99.75;100499.37;105208;1270;101388;-78
2023/03/21 03:21:13;;;;;;;29.20;18.30;;;;;;;8.40;99.70;100500.16;105029;1265;99285;-78
2023/03/21 03:24:07;;;;;;;26.90;16.10;;;;;;;8.41;99.73;100497.38;105471;1268;97729;-78
2023/03/21 03:26:57;;;;;;;29.10;18.00;;;;;;;8.42;99.89;100495.48;105250;1266;96631;-78
2023/03/21 03:29:48;;;;;;;27.30;16.50;;;;;;;8.43;99.89;100494.64;105031;1269;97241;-77
2023/03/21 03:32:47;;;;;;;29.60;18.90;;;;;;;8.40;99.56;100496.06;105089;1268;100133;-78
2023/03/21 03:35:32;;;;;;;28.30;17.80;;;;;;;8.36;99.80;100497.56;105099;1264;99143;-77
2023/03/21 03:38:20;;;;;;;33.20;18.90;;;;;;;8.35;99.91;100500.17;104921;1271;97794;-78
2023/03/21 03:41:17;;;;;;;30.50;19.80;;;;;;;8.36;99.92;100497.56;105679;1267;96715;-78
2023/03/21 03:44:07;;;;;;;29.00;18.60;;;;;;;8.36;99.87;100501.35;105139;1267;98288;-77
2023/03/21 03:47:06;;;;;;;29.00;18.20;;;;;;;8.35;99.88;100499.98;104971;1268;100032;-78
2023/03/21 03:50:09;;;;;;;30.70;17.70;;;;;;;8.37;99.99;100497.87;104847;1268;99112;-77
2023/03/21 03:53:22;;;;;;;33.60;18.00;;;;;;;8.37;99.77;100494.29;104863;1269;98013;-77
2023/03/21 03:56:11;;;;;;;30.90;18.80;;;;;;;8.35;99.81;100496.23;105034;1267;96623;-78
2023/03/21 03:58:58;;;;;;;28.60;16.80;;;;;;;8.34;99.74;100496.08;104898;1264;97152;-77
2023/03/21 04:01:57;;;;;;;26.60;16.50;;;;;;;8.31;99.80;100493.32;104988;1266;101619;-78
2023/03/21 04:04:42;;;;;;;27.50;17.20;;;;;;;8.30;99.77;100492.69;104637;1268;99101;-78
2023/03/21 04:07:28;;;;;;;29.30;17.00;;;;;;;8.31;99.82;100489.13;105031;1265;97718;-78
2023/03/21 04:10:17;;;;;;;26.70;16.40;;;;;;;8.33;99.78;100486.01;105302;1267;97294;-78
2023/03/21 04:13:02;;;;;;;25.90;15.10;;;;;;;8.36;99.80;100487.98;105197;1268;96634;-79
2023/03/21 04:16:03;;;;;;;28.10;17.20;;;;;;;8.34;99.72;100492.77;105319;1266;100750;-78
2023/03/21 04:18:49;;;;;;;29.80;17.00;;;;;;;8.33;99.65;100494.89;105242;1267;99238;-78
2023/03/21 04:21:38;;;;;;;24.50;15.00;;;;;;;8.34;99.48;100492.14;105414;1268;99022;-78
2023/03/21 04:24:23;;;;;;;24.50;14.90;;;;;;;8.33;99.64;100494.38;105115;1268;96707;-78
2023/03/21 04:27:09;;;;;;;24.90;15.60;;;;;;;8.31;99.60;100494.66;105225;1277;96552;-79
2023/03/21 04:29:59;;;;;;;25.00;14.60;;;;;;;8.28;99.56;100496.79;105354;1264;100567;-78
2023/03/21 04:32:59;;;;;;;25.40;15.40;;;;;;;8.26;99.73;100499.28;105098;1264;100143;-77
2023/03/21 04:35:46;;;;;;;26.00;16.30;;;;;;;8.27;99.84;100500.42;105155;1264;99000;-78
2023/03/21 04:38:32;;;;;;;27.50;17.20;;;;;;;8.26;99.87;100499.79;106278;1267;97360;-76
2023/03/21 04:41:20;;;;;;;25.70;14.50;;;;;;;8.25;99.93;100497.45;104692;1269;97148;-78
2023/03/21 04:44:09;;;;;;;28.40;16.40;;;;;;;8.24;99.81;100497.39;104888;1267;101415;-77
2023/03/21 04:46:55;;;;;;;23.80;16.80;;;;;;;8.24;99.90;100499.16;104669;1278;99145;-78
2023/03/21 04:49:42;;;;;;;25.00;15.20;;;;;;;8.25;99.96;100502.55;105134;1270;97976;-79
2023/03/21 04:52:29;;;;;;;30.80;15.90;;;;;;;8.26;99.87;100503.21;105324;1268;97129;-78
2023/03/21 04:55:15;;;;;;;25.20;15.20;;;;;;;8.27;99.88;100500.12;104928;1268;96633;-78
2023/03/21 04:58:03;;;;;;;20.80;13.60;;;;;;;8.27;99.88;100501.32;105115;1267;101712;-77
2023/03/21 05:00:51;;;;;;;26.00;15.10;;;;;;;8.26;99.88;100504.42;104873;1269;100319;-78
2023/03/21 05:03:39;;;;;;;26.70;15.00;;;;;;;8.27;99.86;100503.30;105107;1264;99014;-78
2023/03/21 05:06:26;;;;;;;25.10;15.30;;;;;;;8.28;99.91;100504.35;105042;1266;97503;-78
2023/03/21 05:09:12;;;;;;;22.70;14.00;;;;;;;8.31;100.00;100507.23;105136;1263;97127;-77
2023/03/21 05:11:59;;;;;;;21.30;13.50;;;;;;;8.35;100.00;100506.98;105110;1264;101301;-77
2023/03/21 05:14:46;;;;;;;26.00;14.80;;;;;;;8.37;99.91;100506.83;105178;1267;100472;-79
2023/03/21 05:17:31;;;;;;;21.60;13.40;;;;;;;8.38;99.87;100510.13;105012;1264;97802;-77
2023/03/21 05:20:17;;;;;;;23.30;13.90;;;;;;;8.37;99.96;100517.55;105022;1264;96702;-78
2023/03/21 05:23:03;;;;;;;27.70;15.60;;;;;;;8.38;99.92;100512.84;105072;1269;98310;-78
2023/03/21 05:25:49;;;;;;;23.40;14.80;;;;;;;8.39;99.86;100512.40;105169;1264;100015;-78
2023/03/21 05:28:41;;;;;;;20.80;13.70;;;;;;;8.38;99.64;100517.88;105181;1267;99298;-77
2023/03/21 05:31:27;;;;;;;27.30;15.70;;;;;;;8.38;99.91;100517.48;105201;1267;97796;-77
2023/03/21 05:34:24;;;;;;;26.60;14.50;;;;;;;8.38;99.82;100517.80;105572;1270;96634;-78
2023/03/21 05:37:10;;;;;;;26.70;15.30;;;;;;;8.35;99.90;100523.83;105454;1266;96550;-78
2023/03/21 05:40:05;;;;;;;22.00;14.80;;;;;;;8.34;99.95;100525.61;105300;1264;100047;-78
2023/03/21 05:42:50;;;;;;;21.50;14.40;;;;;;;8.33;99.95;100527.85;105628;1263;100360;-80
2023/03/21 05:45:40;;;;;;;24.20;14.70;;;;;;;8.33;100.00;100530.11;105455;1267;97743;-78
2023/03/21 05:48:26;;;;;;;24.30;13.90;;;;;;;8.33;100.00;100532.31;105578;1269;95830;-80
2023/03/21 05:51:32;;;;;;;22.70;13.70;;;;;;;8.33;100.00;100535.98;105594;1264;97167;-79
2023/03/21 05:54:17;;;;;;;23.00;14.30;;;;;;;8.33;100.00;100538.52;105334;1269;100023;-80
2023/03/21 05:57:05;;;;;;;21.90;13.40;;;;;;;8.34;100.00;100541.46;105285;1264;107808;-79
2023/03/21 06:00:09;;;;;;;21.10;13.50;;;;;;;8.35;100.00;100539.58;105291;1275;99482;-78
2023/03/21 06:03:08;;;;;;;21.60;13.20;;;;;;;8.38;100.00;100541.54;105187;1270;97479;-78
2023/03/21 06:06:15;;;;;;;21.00;12.90;;;;;;;8.39;100.00;100544.69;105439;1264;97068;-79
2023/03/21 06:09:08;;;;;;;22.60;13.50;;;;;;;8.40;100.00;100546.75;105240;1266;100046;-78
2023/03/21 06:11:56;;;;;;;19.70;12.70;;;;;;;8.40;100.00;100546.09;105287;1268;100396;-79
2023/03/21 06:15:07;;;;;;;20.10;12.90;;;;;;;8.39;100.00;100548.16;106103;1264;98856;-78
2023/03/21 06:17:57;;;;;;;25.00;15.20;;;;;;;8.36;100.00;100547.95;105156;1264;96492;-79
2023/03/21 06:20:42;;;;;;;22.00;13.80;;;;;;;8.36;100.00;100550.58;105180;1264;96734;-78
2023/03/21 06:23:29;;;;;;;24.80;15.00;;;;;;;8.39;100.00;100550.23;105431;1269;100002;-78
2023/03/21 06:26:18;;;;;;;21.10;13.40;;;;;;;8.43;100.00;100551.09;105432;1264;100417;-79
2023/03/21 06:29:05;;;;;;;24.60;15.30;;;;;;;8.46;100.00;100557.81;105396;1264;98564;-79
2023/03/21 06:31:51;;;;;;;25.70;14.50;;;;;;;8.47;100.00;100562.27;105318;1266;97990;-78
2023/03/21 06:34:36;;;;;;;23.80;13.80;;;;;;;8.49;100.00;100564.19;105288;1269;97151;-79
2023/03/21 06:37:22;;;;;;;25.90;15.00;;;;;;;8.53;100.00;100568.79;105062;1269;101295;-77
2023/03/21 06:40:09;;;;;;;22.00;14.70;;;;;;;8.54;100.00;100560.98;105222;1264;100514;-79
2023/03/21 06:42:54;;;;;;;23.50;15.00;;;;;;;8.58;100.00;100561.08;105342;1270;98993;-78
2023/03/21 06:45:40;;;;;;;25.50;15.40;;;;;;;8.60;100.00;100561.55;105034;1266;96636;-77
2023/03/21 06:48:28;;;;;;;24.20;14.70;;;;;;;8.62;100.00;100564.45;105097;1269;97125;-77
2023/03/21 06:51:14;;;;;;;24.00;14.80;;;;;;;8.63;100.00;100567.40;105275;1267;100772;-78
2023/03/21 06:54:09;;;;;;;24.30;15.60;;;;;;;8.67;100.00;100567.21;105165;1267;99088;-78
2023/03/21 06:57:04;;;;;;;28.00;17.40;;;;;;;8.69;100.00;100572.11;104981;1264;99880;-78
2023/03/21 06:59:52;;;;;;;27.40;17.80;;;;;;;8.71;100.00;100573.53;105056;1266;96503;-78
2023/03/21 07:02:40;;;;;;;23.00;15.20;;;;;;;8.73;100.00;100575.25;105133;1266;97145;-77
2023/03/21 07:05:38;;;;;;;28.90;15.90;;;;;;;8.76;100.00;100579.81;104992;1264;101285;-78
2023/03/21 07:08:23;;;;;;;27.90;15.40;;;;;;;8.79;100.00;100586.80;105005;1268;99712;-77
2023/03/21 07:11:09;;;;;;;24.50;16.30;;;;;;;8.77;100.00;100587.73;105218;1267;98431;-77
2023/03/21 07:13:54;;;;;;;24.30;15.20;;;;;;;8.75;100.00;100588.80;105043;1270;96632;-79
2023/03/21 07:16:41;;;;;;;27.00;18.60;;;;;;;8.77;100.00;100588.66;105068;1266;97077;-77
2023/03/21 07:19:27;;;;;;;24.10;15.70;;;;;;;8.81;100.00;100592.77;105063;1264;101722;-78
2023/03/21 07:22:13;;;;;;;21.90;15.30;;;;;;;8.84;100.00;100594.16;105162;1264;99189;-76
2023/03/21 07:24:58;;;;;;;21.90;14.20;;;;;;;8.85;100.00;100591.08;105885;1264;98434;-84
2023/03/21 07:27:45;;;;;;;20.40;13.30;;;;;;;8.82;100.00;100592.75;105767;1264;96718;-83
2023/03/21 07:30:31;;;;;;;17.70;13.00;;;;;;;8.81;100.00;100590.59;105845;1264;96542;-82
2023/03/21 07:33:16;;;;;;;23.30;14.50;;;;;;;8.79;100.00;100591.29;105475;1264;100013;-80
2023/03/21 07:36:03;;;;;;;21.00;13.50;;;;;;;8.80;100.00;100591.52;105599;1264;100299;-79
2023/03/21 07:38:48;;;;;;;19.40;12.30;;;;;;;8.82;100.00;100590.52;105147;1264;97763;-77
2023/03/21 07:41:39;;;;;;;22.90;17.60;;;;;;;8.85;100.00;100592.36;105669;1264;97153;-77
2023/03/21 07:45:03;;;;;;;17.00;12.20;;;;;;;8.88;100.00;100588.06;104921;1267;97241;-90
2023/03/21 07:47:53;;;;;;;20.10;13.20;;;;;;;8.92;100.00;100590.45;105774;1264;101309;-83
2023/03/21 07:50:40;;;;;;;25.10;16.90;;;;;;;8.96;100.00;100591.22;105712;1263;107734;-88
2023/03/21 07:53:47;;;;;;;21.10;13.50;;;;;;;8.98;100.00;100590.56;106169;1265;97941;-88
2023/03/21 07:56:32;;;;;;;19.20;12.90;;;;;;;9.00;100.00;100590.93;106038;1264;96669;-82
2023/03/21 07:59:18;;;;;;;17.70;11.80;;;;;;;9.02;100.00;100590.11;105854;1264;97060;-80
2023/03/21 08:02:04;;;;;;;15.80;12.00;;;;;;;9.03;100.00;100593.08;106090;1262;102494;-86
2023/03/21 08:04:51;;;;;;;22.60;13.40;;;;;;;9.05;100.00;100596.70;105810;1267;100408;-83
2023/03/21 08:07:36;;;;;;;23.80;15.20;;;;;;;9.10;100.00;100599.74;105822;1270;97744;-81
2023/03/21 08:10:22;;;;;;;16.30;11.50;;;;;;;9.13;100.00;100601.83;105832;1266;96620;-84
2023/03/21 08:13:08;;;;;;;18.60;12.90;;;;;;;9.14;100.00;100604.23;105932;1263;97974;-80
2023/03/21 08:15:54;;;;;;;18.80;13.20;;;;;;;9.10;100.00;100605.58;105953;1267;100008;-82
2023/03/21 08:18:39;;;;;;;22.20;13.80;;;;;;;9.09;100.00;100605.66;105850;1264;99795;-82
2023/03/21 08:21:29;;;;;;;18.30;12.70;;;;;;;9.12;100.00;100604.23;106102;1267;97741;-87
2023/03/21 08:24:15;;;;;;;25.80;15.10;;;;;;;9.10;100.00;100607.22;105955;1264;96649;-77
2023/03/21 08:27:01;;;;;;;22.80;15.80;;;;;;;9.08;100.00;100610.11;106318;1264;96652;-85
2023/03/21 08:29:47;;;;;;;21.50;14.40;;;;;;;9.07;100.00;100609.64;105897;1264;101389;-86
2023/03/21 08:32:33;;;;;;;21.00;14.30;;;;;;;9.07;100.00;100609.91;106013;1263;101368;-85
2023/03/21 08:35:19;;;;;;;22.60;13.50;;;;;;;9.06;100.00;100613.73;105911;1264;98015;-83
2023/03/21 08:38:06;;;;;;;18.00;12.10;;;;;;;9.07;99.99;100616.13;105478;1264;96642;-79
2023/03/21 08:40:51;;;;;;;18.30;12.90;;;;;;;9.06;100.00;100618.04;105859;1263;97820;-77
2023/03/21 08:43:37;;;;;;;18.30;13.40;;;;;;;9.09;100.00;100616.71;105145;1267;100033;-76
2023/03/21 08:46:23;;;;;;;21.20;13.50;;;;;;;9.14;100.00;100624.66;105258;1266;100361;-86
2023/03/21 08:49:08;;;;;;;17.10;11.80;;;;;;;9.17;100.00;100625.57;105517;1269;98600;-74
2023/03/21 08:51:55;;;;;;;17.10;11.70;;;;;;;9.18;100.00;100627.55;104941;1267;97171;-75
2023/03/21 08:54:43;;;;;;;16.90;10.80;;;;;;;9.22;100.00;100630.20;104792;1264;97064;-74
2023/03/21 08:57:29;;;;;;;17.10;10.10;;;;;;;9.26;100.00;100634.90;104722;1263;101297;-74
2023/03/21 09:00:16;;;;;;;17.30;11.00;;;;;;;9.27;99.99;100639.38;104912;1263;99146;-75
2023/03/21 09:03:03;;;;;;;15.70;9.80;;;;;;;9.24;99.99;100641.54;104864;1264;98291;-74
2023/03/21 09:05:52;;;;;;;18.30;10.70;;;;;;;9.20;99.95;100641.30;104801;1264;96651;-74
2023/03/21 09:08:38;;;;;;;14.90;10.70;;;;;;;9.11;99.85;100647.46;104831;1264;97155;-75
2023/03/21 09:11:23;;;;;;;15.40;10.40;;;;;;;9.06;99.90;100648.96;104835;1266;100698;-75
2023/03/21 09:14:09;;;;;;;16.40;11.60;;;;;;;9.05;100.00;100646.06;104853;1267;99258;-75
2023/03/21 09:16:54;;;;;;;16.10;10.90;;;;;;;9.08;100.00;100651.21;104669;1267;97730;-75
2023/03/21 09:19:41;;;;;;;14.30;10.50;;;;;;;9.12;100.00;100652.23;104674;1270;97139;-74
2023/03/21 09:22:26;;;;;;;14.70;11.00;;;;;;;9.15;100.00;100652.69;104823;1264;97139;-74
2023/03/21 09:25:14;;;;;;;15.80;10.60;;;;;;;9.16;100.00;100656.92;104801;1267;100018;-73
2023/03/21 09:28:03;;;;;;;15.20;10.60;;;;;;;9.16;100.00;100658.63;104836;1266;99203;-74
2023/03/21 09:30:50;;;;;;;14.50;10.90;;;;;;;9.16;100.00;100659.73;104677;1264;97900;-73
2023/03/21 09:33:37;;;;;;;14.40;9.70;;;;;;;9.18;100.00;100662.73;104665;1264;97273;-75
2023/03/21 09:36:25;;;;;;;13.20;9.40;;;;;;;9.19;100.00;100664.95;104765;1264;97134;-74
2023/03/21 09:39:11;;;;;;;14.80;10.00;;;;;;;9.16;100.00;100664.00;104767;1267;100827;-74
2023/03/21 09:42:18;;;;;;;14.10;10.10;;;;;;;9.15;100.00;100664.11;104685;1267;99390;-74
2023/03/21 09:45:26;;;;;;;15.60;9.80;;;;;;;9.17;100.00;100664.09;104882;1263;97700;-75
2023/03/21 09:48:36;;;;;;;13.20;9.70;;;;;;;9.17;100.00;100660.66;104827;1264;96642;-76
2023/03/21 09:51:27;;;;;;;13.30;9.80;;;;;;;9.16;100.00;100659.92;104971;1262;96535;-73
2023/03/21 09:54:29;;;;;;;15.70;11.10;;;;;;;9.19;100.00;100660.98;104915;1267;100111;-73
2023/03/21 09:57:30;;;;;;;13.20;10.40;;;;;;;9.26;100.00;100663.91;104724;1268;99589;-74
2023/03/21 10:00:29;;;;;;;14.40;10.40;;;;;;;9.34;100.00;100663.92;105342;1264;97749;-88
2023/03/21 10:03:28;;;;;;;14.40;9.40;;;;;;;9.36;100.00;100667.98;105944;1268;97507;-84
2023/03/21 10:06:15;;;;;;;13.10;9.10;;;;;;;9.39;100.00;100665.50;106269;1267;97172;-80
2023/03/21 10:09:31;;;;;;;11.40;8.40;;;;;;;9.42;100.00;100665.80;107372;1264;100579;-89
2023/03/21 10:12:22;;;;;;;10.80;7.80;;;;;;;9.41;100.00;100665.05;106048;1264;100382;-85
2023/03/21 10:15:14;;;;;;;9.00;6.90;;;;;;;9.37;100.00;100665.64;105957;1263;97746;-88
2023/03/21 10:18:08;;;;;;;9.00;7.00;;;;;;;9.34;100.00;100667.06;105994;1263;96626;-86
2023/03/21 10:20:54;;;;;;;8.90;6.50;;;;;;;9.32;100.00;100671.95;107492;1267;95911;-88
2023/03/21 10:23:42;;;;;;;8.10;6.20;;;;;;;9.29;99.90;100673.02;105810;1264;101265;-84
2023/03/21 10:26:29;;;;;;;7.30;5.40;;;;;;;9.30;99.98;100671.83;106020;1264;99212;-84
2023/03/21 10:29:17;;;;;;;6.60;5.10;;;;;;;9.33;99.99;100674.86;105784;1268;97961;-84
2023/03/21 10:32:06;;;;;;;7.00;5.30;;;;;;;9.37;99.75;100674.67;105816;1263;97942;-84
2023/03/21 10:34:57;;;;;;;7.80;5.60;;;;;;;9.38;99.33;100675.77;105509;1264;98425;-85
2023/03/21 10:37:42;;;;;;;7.00;5.60;;;;;;;9.38;99.04;100678.91;105732;1262;101401;-84
2023/03/21 10:40:28;;;;;;;7.90;6.10;;;;;;;9.41;99.53;100679.64;105522;1266;122613;-82
2023/03/21 10:43:37;;;;;;;6.60;5.30;;;;;;;9.44;98.47;100679.27;105682;1264;105949;-84
2023/03/21 10:46:26;;;;;;;7.90;6.50;;;;;;;9.43;98.37;100682.27;106078;1264;97984;-87
2023/03/21 10:49:21;;;;;;;7.30;5.60;;;;;;;9.45;98.45;100681.90;105938;1264;98093;-82
2023/03/21 10:52:10;;;;;;;9.50;6.50;;;;;;;9.49;99.08;100679.94;106085;1264;101418;-82
2023/03/21 10:55:24;;;;;;;9.60;6.80;;;;;;;9.57;99.29;100677.56;106025;1268;100725;-83
2023/03/21 10:58:34;;;;;;;8.90;6.80;;;;;;;9.68;99.58;100677.69;106398;1264;97991;-88
2023/03/21 11:01:35;;;;;;;11.50;7.70;;;;;;;9.78;99.80;100677.77;106335;1264;97898;-87
2023/03/21 11:04:25;;;;;;;9.60;7.70;;;;;;;9.86;99.81;100675.77;106152;1268;98008;-86
2023/03/21 11:07:14;;;;;;;9.60;6.50;;;;;;;9.94;99.87;100677.10;105905;1264;101359;-82
2023/03/21 11:10:28;;;;;;;10.10;6.90;;;;;;;10.04;99.73;100677.30;105881;1264;100525;-84
2023/03/21 11:13:26;;;;;;;10.60;7.10;;;;;;;10.14;99.47;100676.83;105920;1266;98008;-84
2023/03/21 11:16:35;;;;;;;8.80;7.00;;;;;;;10.26;98.89;100673.02;105903;1263;97988;-85
2023/03/21 11:19:32;;;;;;;7.60;6.40;;;;;;;10.32;98.29;100672.09;105316;1264;98355;-80
2023/03/21 11:22:21;;;;;;;9.80;7.90;;;;;;;10.36;97.93;100670.13;105246;1264;102340;-79
2023/03/21 11:25:18;;;;;;;14.20;9.90;;;;;;;10.39;97.51;100664.95;105584;1268;99093;-79
2023/03/21 11:28:12;;;;;;;8.30;6.90;;;;;;;10.42;97.28;100667.94;105561;1267;99044;-78
2023/03/21 11:31:01;;;;;;;8.90;7.00;;;;;;;10.44;97.05;100666.46;105353;1264;98516;-78
2023/03/21 11:33:54;;;;;;;8.30;6.70;;;;;;;10.41;96.72;100666.88;105692;1266;97896;-85
2023/03/21 11:37:37;;;;;;;8.60;6.60;;;;;;;10.39;96.41;100666.85;106228;1264;101388;-87
2023/03/21 11:40:31;;;;;;;13.80;7.50;;;;;;;10.40;96.85;100665.17;106006;1264;99264;-85
2023/03/21 11:43:17;;;;;;;7.70;5.50;;;;;;;10.42;96.25;100662.78;105853;1264;98997;-85
2023/03/21 11:46:13;;;;;;;7.90;6.00;;;;;;;10.42;95.74;100655.61;106048;1262;97955;-84
2023/03/21 11:49:00;;;;;;;6.40;5.30;;;;;;;10.42;95.60;100659.55;105897;1268;97888;-83
2023/03/21 11:52:02;;;;;;;7.70;6.30;;;;;;;10.44;95.68;100656.50;105936;1264;104185;-80
2023/03/21 11:55:02;;;;;;;7.90;6.00;;;;;;;10.48;95.60;100654.20;106279;1267;100283;-84
2023/03/21 11:58:21;;;;;;;8.30;5.90;;;;;;;10.52;95.13;100652.16;105892;1263;99572;-84
2023/03/21 12:01:28;;;;;;;9.40;5.50;;;;;;;10.52;94.71;100654.97;105847;1264;97944;-87
2023/03/21 12:04:24;;;;;;;7.40;5.80;;;;;;;10.49;93.94;100656.98;106140;1266;97808;-85
2023/03/21 12:07:36;;;;;;;7.80;5.60;;;;;;;10.50;93.92;100656.05;106037;1267;102571;-86
2023/03/21 12:10:34;;;;;;;6.40;5.40;;;;;;;10.55;93.95;100654.02;105978;1262;99076;-84
2023/03/21 12:13:42;;;;;;;7.20;5.90;;;;;;;10.60;93.70;100652.52;105768;1264;98542;-84
2023/03/21 12:17:05;;;;;;;7.90;6.00;;;;;;;10.62;92.83;100649.20;105786;1263;97954;-84
2023/03/21 12:20:29;;;;;;;5.50;4.60;;;;;;;10.59;92.27;100653.52;105731;1264;98598;-82
2023/03/21 12:23:30;;;;;;;4.70;4.00;;;;;;;10.58;91.40;100650.30;105928;1263;102649;-86
2023/03/21 12:26:22;;;;;;;10.70;4.60;;;;;;;10.58;90.79;100646.68;105862;1264;99258;-88
2023/03/21 12:29:38;;;;;;;5.90;4.90;;;;;;;10.59;90.91;100644.80;106110;1265;98597;-81
2023/03/21 12:32:44;;;;;;;4.90;4.40;;;;;;;10.60;90.16;100644.71;105960;1264;97914;-87
2023/03/21 12:35:44;;;;;;;6.00;4.70;;;;;;;10.55;89.64;100644.16;106187;1263;98429;-88
2023/03/21 12:39:08;;;;;;;5.70;4.70;;;;;;;10.59;90.10;100647.18;106162;1264;101339;-88
2023/03/21 12:41:54;;;;;;;6.20;4.90;;;;;;;10.60;89.69;100641.98;105721;1266;100231;-84
2023/03/21 12:44:45;;;;;;;7.40;5.20;;;;;;;10.62;90.07;100639.81;105906;1264;99046;-89
2023/03/21 12:47:36;;;;;;;7.60;5.30;;;;;;;10.69;90.44;100638.37;105558;1263;98007;-85
2023/03/21 12:50:28;;;;;;;8.60;6.20;;;;;;;10.72;89.86;100636.55;105885;1264;98493;-87
2023/03/21 12:53:29;;;;;;;9.20;6.70;;;;;;;10.71;89.62;100637.71;105992;1264;101399;-86
2023/03/21 12:56:21;;;;;;;8.30;7.40;;;;;;;10.70;89.65;100632.48;105853;1268;99120;-82
2023/03/21 12:59:24;;;;;;;11.60;7.60;;;;;;;10.68;89.74;100634.95;105583;1268;98976;-77
2023/03/21 13:02:20;;;;;;;9.40;8.10;;;;;;;10.64;89.73;100635.22;104976;1262;98045;-79